Cruzeiro do Sul, Brazil
Current Conditions -  °F | °C
As of 5:00 AM on Saturday 25 Oct 2014 (Local Time) from SBCZ Reporting Station
Thunderstorm Thunderstorm  
Wind Chill: 72°   Ceiling: 10000
Heat Index: 72°   Visibility: 3mi
Dew Point: 72°   Wind: 2mph
Humidity: 100%   Direction: 340°NNW
Pressure: NA   Gusts: NA
Location:  7.63°S, 72.67°W
Report Text: SBCZ 250900Z 34002KT 5000 -TSRA SCT005 FEW020CB OVC100 22/22 Q1010
Loading
Personal Weather Stations






























Interactive Weather Map
Tropical Storm Tracking
New forecast layout! Learn more

10-Day Weather Forecast

Advertisements
Track Severe Weather on mobile